sensor_id;sensor_type;location;lat;lon;timestamp;temperature;humidity
61004;DHT22;46889;37.310;13.582;2022-07-29T00:02:15;27.60;87.90
61004;DHT22;46889;37.310;13.582;2022-07-29T00:04:40;27.60;87.80
61004;DHT22;46889;37.310;13.582;2022-07-29T00:07:06;27.60;87.90
61004;DHT22;46889;37.310;13.582;2022-07-29T00:09:32;27.60;87.90
61004;DHT22;46889;37.310;13.582;2022-07-29T00:11:59;27.60;87.00
61004;DHT22;46889;37.310;13.582;2022-07-29T00:14:25;27.70;87.20
61004;DHT22;46889;37.310;13.582;2022-07-29T00:16:51;27.70;86.70
61004;DHT22;46889;37.310;13.582;2022-07-29T00:19:17;27.80;86.50
61004;DHT22;46889;37.310;13.582;2022-07-29T00:21:43;27.80;86.70
61004;DHT22;46889;37.310;13.582;2022-07-29T00:24:09;27.70;86.60
61004;DHT22;46889;37.310;13.582;2022-07-29T00:26:35;27.70;86.50
61004;DHT22;46889;37.310;13.582;2022-07-29T00:29:01;27.80;86.60
61004;DHT22;46889;37.310;13.582;2022-07-29T00:31:27;27.70;86.60
61004;DHT22;46889;37.310;13.582;2022-07-29T00:33:53;27.80;86.50
61004;DHT22;46889;37.310;13.582;2022-07-29T00:36:19;27.80;86.60
61004;DHT22;46889;37.310;13.582;2022-07-29T00:38:49;27.70;86.80
61004;DHT22;46889;37.310;13.582;2022-07-29T00:41:16;27.70;87.00
61004;DHT22;46889;37.310;13.582;2022-07-29T00:43:42;27.70;87.10
61004;DHT22;46889;37.310;13.582;2022-07-29T00:46:08;27.60;87.30
61004;DHT22;46889;37.310;13.582;2022-07-29T00:48:34;27.50;87.40
61004;DHT22;46889;37.310;13.582;2022-07-29T00:51:01;27.50;87.50
61004;DHT22;46889;37.310;13.582;2022-07-29T00:53:27;27.50;87.70
61004;DHT22;46889;37.310;13.582;2022-07-29T00:55:53;27.40;87.90
61004;DHT22;46889;37.310;13.582;2022-07-29T00:58:20;27.30;88.30
61004;DHT22;46889;37.310;13.582;2022-07-29T01:00:46;27.20;88.60
61004;DHT22;46889;37.310;13.582;2022-07-29T01:03:12;27.20;88.60
61004;DHT22;46889;37.310;13.582;2022-07-29T01:05:38;27.10;88.80
61004;DHT22;46889;37.310;13.582;2022-07-29T01:08:04;27.10;88.90
61004;DHT22;46889;37.310;13.582;2022-07-29T01:10:30;27.10;88.90
61004;DHT22;46889;37.310;13.582;2022-07-29T01:12:57;27.10;89.10
61004;DHT22;46889;37.310;13.582;2022-07-29T01:15:24;27.10;89.20
61004;DHT22;46889;37.310;13.582;2022-07-29T01:28:31;27.00;89.80
61004;DHT22;46889;37.310;13.582;2022-07-29T01:30:58;26.90;90.00
61004;DHT22;46889;37.310;13.582;2022-07-29T01:33:25;26.90;90.10
61004;DHT22;46889;37.310;13.582;2022-07-29T01:36:11;26.90;90.10
61004;DHT22;46889;37.310;13.582;2022-07-29T01:38:39;26.90;90.20
61004;DHT22;46889;37.310;13.582;2022-07-29T01:41:06;26.90;90.30
61004;DHT22;46889;37.310;13.582;2022-07-29T01:43:36;26.90;90.30
61004;DHT22;46889;37.310;13.582;2022-07-29T01:46:04;26.90;90.40
61004;DHT22;46889;37.310;13.582;2022-07-29T01:48:37;26.90;90.40
61004;DHT22;46889;37.310;13.582;2022-07-29T01:53:50;26.90;90.70
61004;DHT22;46889;37.310;13.582;2022-07-29T01:56:20;26.90;90.70
61004;DHT22;46889;37.310;13.582;2022-07-29T01:58:48;26.80;90.90
61004;DHT22;46889;37.310;13.582;2022-07-29T02:01:15;26.80;91.00
61004;DHT22;46889;37.310;13.582;2022-07-29T02:03:42;26.80;91.10
61004;DHT22;46889;37.310;13.582;2022-07-29T02:06:09;26.80;91.20
61004;DHT22;46889;37.310;13.582;2022-07-29T02:08:36;26.80;91.30
61004;DHT22;46889;37.310;13.582;2022-07-29T02:11:03;26.70;91.40
61004;DHT22;46889;37.310;13.582;2022-07-29T02:13:30;26.70;91.60
61004;DHT22;46889;37.310;13.582;2022-07-29T02:15:57;26.80;91.90
61004;DHT22;46889;37.310;13.582;2022-07-29T02:18:24;26.80;92.00
61004;DHT22;46889;37.310;13.582;2022-07-29T02:20:52;26.80;92.10
61004;DHT22;46889;37.310;13.582;2022-07-29T02:23:19;26.80;92.10
61004;DHT22;46889;37.310;13.582;2022-07-29T02:25:48;26.80;92.30
61004;DHT22;46889;37.310;13.582;2022-07-29T02:28:14;26.80;92.30
61004;DHT22;46889;37.310;13.582;2022-07-29T02:30:41;26.70;92.40
61004;DHT22;46889;37.310;13.582;2022-07-29T02:33:09;26.70;92.40
61004;DHT22;46889;37.310;13.582;2022-07-29T02:35:36;26.70;92.50
61004;DHT22;46889;37.310;13.582;2022-07-29T02:38:02;26.70;92.60
61004;DHT22;46889;37.310;13.582;2022-07-29T02:40:46;26.70;92.80
61004;DHT22;46889;37.310;13.582;2022-07-29T02:43:13;26.70;92.90
61004;DHT22;46889;37.310;13.582;2022-07-29T02:45:40;26.70;92.90
61004;DHT22;46889;37.310;13.582;2022-07-29T02:48:09;26.70;92.80
61004;DHT22;46889;37.310;13.582;2022-07-29T02:50:38;26.60;92.80
61004;DHT22;46889;37.310;13.582;2022-07-29T02:53:14;26.70;92.90
61004;DHT22;46889;37.310;13.582;2022-07-29T02:55:46;26.60;92.90
61004;DHT22;46889;37.310;13.582;2022-07-29T02:58:15;26.60;92.90
61004;DHT22;46889;37.310;13.582;2022-07-29T03:00:44;26.70;93.00
61004;DHT22;46889;37.310;13.582;2022-07-29T03:03:13;26.60;93.00
61004;DHT22;46889;37.310;13.582;2022-07-29T03:05:40;26.60;92.80
61004;DHT22;46889;37.310;13.582;2022-07-29T03:08:07;26.70;92.80
61004;DHT22;46889;37.310;13.582;2022-07-29T03:10:34;26.70;92.80
61004;DHT22;46889;37.310;13.582;2022-07-29T03:13:02;26.60;93.00
61004;DHT22;46889;37.310;13.582;2022-07-29T03:15:28;26.60;92.90
61004;DHT22;46889;37.310;13.582;2022-07-29T03:17:54;26.70;92.60
61004;DHT22;46889;37.310;13.582;2022-07-29T03:20:21;26.70;92.70
61004;DHT22;46889;37.310;13.582;2022-07-29T03:22:47;26.70;92.70
61004;DHT22;46889;37.310;13.582;2022-07-29T03:25:14;26.70;92.70
61004;DHT22;46889;37.310;13.582;2022-07-29T03:27:41;26.70;92.60
61004;DHT22;46889;37.310;13.582;2022-07-29T03:30:07;26.70;92.50
61004;DHT22;46889;37.310;13.582;2022-07-29T03:32:33;26.80;92.40
61004;DHT22;46889;37.310;13.582;2022-07-29T03:34:59;26.70;92.40
61004;DHT22;46889;37.310;13.582;2022-07-29T03:37:25;26.70;92.70
61004;DHT22;46889;37.310;13.582;2022-07-29T03:39:50;26.70;93.00
61004;DHT22;46889;37.310;13.582;2022-07-29T03:42:18;26.70;93.20
61004;DHT22;46889;37.310;13.582;2022-07-29T03:44:47;26.60;93.20
61004;DHT22;46889;37.310;13.582;2022-07-29T03:47:13;26.60;93.30
61004;DHT22;46889;37.310;13.582;2022-07-29T03:49:40;26.60;93.50
61004;DHT22;46889;37.310;13.582;2022-07-29T03:52:06;26.60;93.60
61004;DHT22;46889;37.310;13.582;2022-07-29T03:54:32;26.60;93.60
61004;DHT22;46889;37.310;13.582;2022-07-29T03:56:59;26.60;93.80
61004;DHT22;46889;37.310;13.582;2022-07-29T03:59:25;26.60;93.80
61004;DHT22;46889;37.310;13.582;2022-07-29T04:01:51;26.60;93.80
61004;DHT22;46889;37.310;13.582;2022-07-29T04:04:17;26.50;93.90
61004;DHT22;46889;37.310;13.582;2022-07-29T04:06:44;26.50;93.90
61004;DHT22;46889;37.310;13.582;2022-07-29T04:09:10;26.50;93.90
61004;DHT22;46889;37.310;13.582;2022-07-29T04:11:38;26.40;93.90
61004;DHT22;46889;37.310;13.582;2022-07-29T04:14:04;26.50;94.30
61004;DHT22;46889;37.310;13.582;2022-07-29T04:16:30;26.50;94.00
61004;DHT22;46889;37.310;13.582;2022-07-29T04:18:56;26.50;94.00
61004;DHT22;46889;37.310;13.582;2022-07-29T04:21:22;26.50;93.90
61004;DHT22;46889;37.310;13.582;2022-07-29T04:23:48;26.50;93.90
61004;DHT22;46889;37.310;13.582;2022-07-29T04:26:15;26.60;93.70
61004;DHT22;46889;37.310;13.582;2022-07-29T04:28:42;26.60;93.60
61004;DHT22;46889;37.310;13.582;2022-07-29T04:31:08;26.70;93.40
61004;DHT22;46889;37.310;13.582;2022-07-29T04:33:34;26.70;93.30
61004;DHT22;46889;37.310;13.582;2022-07-29T04:36:00;26.80;93.20
61004;DHT22;46889;37.310;13.582;2022-07-29T04:38:26;26.90;93.10
61004;DHT22;46889;37.310;13.582;2022-07-29T04:40:51;26.90;93.60
61004;DHT22;46889;37.310;13.582;2022-07-29T04:43:18;26.90;93.40
61004;DHT22;46889;37.310;13.582;2022-07-29T04:45:44;26.90;93.40
61004;DHT22;46889;37.310;13.582;2022-07-29T04:48:10;26.80;93.50
61004;DHT22;46889;37.310;13.582;2022-07-29T04:50:39;26.80;93.60
61004;DHT22;46889;37.310;13.582;2022-07-29T04:53:05;26.70;93.70
61004;DHT22;46889;37.310;13.582;2022-07-29T04:55:31;26.70;93.90
61004;DHT22;46889;37.310;13.582;2022-07-29T04:57:57;26.60;93.90
61004;DHT22;46889;37.310;13.582;2022-07-29T05:00:23;26.60;93.90
61004;DHT22;46889;37.310;13.582;2022-07-29T05:02:49;26.60;93.90
61004;DHT22;46889;37.310;13.582;2022-07-29T05:05:15;26.70;93.50
61004;DHT22;46889;37.310;13.582;2022-07-29T05:07:41;26.60;93.20
61004;DHT22;46889;37.310;13.582;2022-07-29T05:10:07;26.70;93.20
61004;DHT22;46889;37.310;13.582;2022-07-29T05:12:33;26.70;93.20
61004;DHT22;46889;37.310;13.582;2022-07-29T05:14:59;26.80;93.20
61004;DHT22;46889;37.310;13.582;2022-07-29T05:17:25;27.20;93.00
61004;DHT22;46889;37.310;13.582;2022-07-29T05:19:52;27.50;92.50
61004;DHT22;46889;37.310;13.582;2022-07-29T05:22:18;27.70;92.20
61004;DHT22;46889;37.310;13.582;2022-07-29T05:24:44;28.00;91.90
61004;DHT22;46889;37.310;13.582;2022-07-29T05:27:10;28.90;90.80
61004;DHT22;46889;37.310;13.582;2022-07-29T05:29:35;29.90;89.00
61004;DHT22;46889;37.310;13.582;2022-07-29T05:32:02;31.10;86.30
61004;DHT22;46889;37.310;13.582;2022-07-29T05:34:28;32.30;83.70
61004;DHT22;46889;37.310;13.582;2022-07-29T05:36:54;33.30;80.90
61004;DHT22;46889;37.310;13.582;2022-07-29T05:39:20;34.30;79.20
61004;DHT22;46889;37.310;13.582;2022-07-29T05:41:46;35.60;76.40
61004;DHT22;46889;37.310;13.582;2022-07-29T05:44:11;36.50;74.70
61004;DHT22;46889;37.310;13.582;2022-07-29T05:46:38;37.90;72.20
61004;DHT22;46889;37.310;13.582;2022-07-29T05:49:04;38.80;69.80
61004;DHT22;46889;37.310;13.582;2022-07-29T05:51:32;40.10;68.00
61004;DHT22;46889;37.310;13.582;2022-07-29T05:53:58;40.20;66.60
61004;DHT22;46889;37.310;13.582;2022-07-29T05:56:24;40.10;66.50
61004;DHT22;46889;37.310;13.582;2022-07-29T05:58:50;40.00;66.50
61004;DHT22;46889;37.310;13.582;2022-07-29T06:01:16;41.00;65.40
61004;DHT22;46889;37.310;13.582;2022-07-29T06:03:43;41.90;63.80
61004;DHT22;46889;37.310;13.582;2022-07-29T06:06:09;42.80;62.10
61004;DHT22;46889;37.310;13.582;2022-07-29T06:08:35;43.00;61.20
61004;DHT22;46889;37.310;13.582;2022-07-29T06:11:01;43.60;60.20
61004;DHT22;46889;37.310;13.582;2022-07-29T06:13:27;43.70;59.80
61004;DHT22;46889;37.310;13.582;2022-07-29T06:15:53;44.20;59.00
61004;DHT22;46889;37.310;13.582;2022-07-29T06:18:19;44.80;57.60
61004;DHT22;46889;37.310;13.582;2022-07-29T06:20:46;44.80;57.60
61004;DHT22;46889;37.310;13.582;2022-07-29T06:23:12;45.50;57.00
61004;DHT22;46889;37.310;13.582;2022-07-29T06:25:39;45.40;56.60
61004;DHT22;46889;37.310;13.582;2022-07-29T06:28:05;46.10;55.30
61004;DHT22;46889;37.310;13.582;2022-07-29T06:30:31;46.80;54.30
61004;DHT22;46889;37.310;13.582;2022-07-29T06:32:56;47.40;53.30
61004;DHT22;46889;37.310;13.582;2022-07-29T06:35:22;47.50;53.00
61004;DHT22;46889;37.310;13.582;2022-07-29T06:37:48;48.10;52.40
61004;DHT22;46889;37.310;13.582;2022-07-29T06:40:14;48.60;51.70
61004;DHT22;46889;37.310;13.582;2022-07-29T06:42:58;49.00;51.20
61004;DHT22;46889;37.310;13.582;2022-07-29T06:45:23;49.70;50.10
61004;DHT22;46889;37.310;13.582;2022-07-29T06:47:49;50.20;49.40
61004;DHT22;46889;37.310;13.582;2022-07-29T06:50:15;50.60;48.70
61004;DHT22;46889;37.310;13.582;2022-07-29T06:52:41;50.40;47.60
61004;DHT22;46889;37.310;13.582;2022-07-29T06:55:07;50.60;47.60
61004;DHT22;46889;37.310;13.582;2022-07-29T06:57:33;51.00;47.20
61004;DHT22;46889;37.310;13.582;2022-07-29T06:59:59;51.00;46.10
61004;DHT22;46889;37.310;13.582;2022-07-29T07:02:25;51.10;46.20
61004;DHT22;46889;37.310;13.582;2022-07-29T07:04:51;51.00;46.20
61004;DHT22;46889;37.310;13.582;2022-07-29T07:07:17;50.30;45.60
61004;DHT22;46889;37.310;13.582;2022-07-29T07:09:43;49.40;46.10
61004;DHT22;46889;37.310;13.582;2022-07-29T07:12:09;49.50;46.30
61004;DHT22;46889;37.310;13.582;2022-07-29T07:14:35;48.60;46.00
61004;DHT22;46889;37.310;13.582;2022-07-29T07:17:00;49.00;46.30
61004;DHT22;46889;37.310;13.582;2022-07-29T07:19:28;49.20;46.60
61004;DHT22;46889;37.310;13.582;2022-07-29T07:21:54;49.00;46.80
61004;DHT22;46889;37.310;13.582;2022-07-29T07:24:20;48.90;47.20
61004;DHT22;46889;37.310;13.582;2022-07-29T07:26:45;48.60;46.80
61004;DHT22;46889;37.310;13.582;2022-07-29T07:29:11;48.00;47.60
61004;DHT22;46889;37.310;13.582;2022-07-29T07:31:38;46.70;47.80
61004;DHT22;46889;37.310;13.582;2022-07-29T07:34:04;45.70;49.10
61004;DHT22;46889;37.310;13.582;2022-07-29T07:36:29;44.80;50.30
61004;DHT22;46889;37.310;13.582;2022-07-29T07:38:55;43.80;52.20
61004;DHT22;46889;37.310;13.582;2022-07-29T07:41:21;43.30;52.00
61004;DHT22;46889;37.310;13.582;2022-07-29T07:43:47;42.20;53.00
61004;DHT22;46889;37.310;13.582;2022-07-29T07:46:13;40.60;54.20
61004;DHT22;46889;37.310;13.582;2022-07-29T07:48:40;40.10;56.00
61004;DHT22;46889;37.310;13.582;2022-07-29T07:51:05;40.20;56.20
61004;DHT22;46889;37.310;13.582;2022-07-29T07:53:33;39.80;55.80
61004;DHT22;46889;37.310;13.582;2022-07-29T07:55:59;39.60;56.60
61004;DHT22;46889;37.310;13.582;2022-07-29T07:58:25;39.70;56.80
61004;DHT22;46889;37.310;13.582;2022-07-29T08:00:50;39.60;55.90
61004;DHT22;46889;37.310;13.582;2022-07-29T08:03:17;39.50;56.20
61004;DHT22;46889;37.310;13.582;2022-07-29T08:05:43;39.30;57.30
61004;DHT22;46889;37.310;13.582;2022-07-29T08:08:08;39.40;57.20
61004;DHT22;46889;37.310;13.582;2022-07-29T08:10:34;39.50;56.90
61004;DHT22;46889;37.310;13.582;2022-07-29T08:13:22;39.50;56.40
61004;DHT22;46889;37.310;13.582;2022-07-29T08:15:48;39.60;56.70
61004;DHT22;46889;37.310;13.582;2022-07-29T08:18:23;39.60;56.00
61004;DHT22;46889;37.310;13.582;2022-07-29T08:20:50;39.30;56.70
61004;DHT22;46889;37.310;13.582;2022-07-29T08:23:16;39.30;57.20
61004;DHT22;46889;37.310;13.582;2022-07-29T08:25:42;39.20;57.20
61004;DHT22;46889;37.310;13.582;2022-07-29T08:28:08;39.10;57.50
61004;DHT22;46889;37.310;13.582;2022-07-29T08:30:34;39.00;57.90
61004;DHT22;46889;37.310;13.582;2022-07-29T08:33:00;39.00;58.00
61004;DHT22;46889;37.310;13.582;2022-07-29T08:35:26;39.00;58.10
61004;DHT22;46889;37.310;13.582;2022-07-29T08:37:52;38.80;57.20
61004;DHT22;46889;37.310;13.582;2022-07-29T08:40:19;38.50;57.90
61004;DHT22;46889;37.310;13.582;2022-07-29T08:42:45;38.30;58.90
61004;DHT22;46889;37.310;13.582;2022-07-29T08:45:11;38.40;59.50
61004;DHT22;46889;37.310;13.582;2022-07-29T08:47:40;38.50;59.20
61004;DHT22;46889;37.310;13.582;2022-07-29T08:50:07;38.20;60.50
61004;DHT22;46889;37.310;13.582;2022-07-29T08:52:35;38.10;61.00
61004;DHT22;46889;37.310;13.582;2022-07-29T08:55:01;38.10;60.20
61004;DHT22;46889;37.310;13.582;2022-07-29T08:57:27;37.90;60.60
61004;DHT22;46889;37.310;13.582;2022-07-29T08:59:53;38.00;60.60
61004;DHT22;46889;37.310;13.582;2022-07-29T09:02:20;37.90;60.50
61004;DHT22;46889;37.310;13.582;2022-07-29T09:04:46;37.70;61.50
61004;DHT22;46889;37.310;13.582;2022-07-29T09:07:16;37.80;62.20
61004;DHT22;46889;37.310;13.582;2022-07-29T09:09:42;37.90;62.80
61004;DHT22;46889;37.310;13.582;2022-07-29T09:12:08;37.60;63.20
61004;DHT22;46889;37.310;13.582;2022-07-29T09:14:37;37.50;63.70
61004;DHT22;46889;37.310;13.582;2022-07-29T09:17:03;37.60;63.70
61004;DHT22;46889;37.310;13.582;2022-07-29T09:19:30;37.40;63.30
61004;DHT22;46889;37.310;13.582;2022-07-29T09:21:58;37.10;64.10
61004;DHT22;46889;37.310;13.582;2022-07-29T09:24:25;37.30;64.30
61004;DHT22;46889;37.310;13.582;2022-07-29T09:26:51;37.30;65.20
61004;DHT22;46889;37.310;13.582;2022-07-29T09:29:19;37.10;65.70
61004;DHT22;46889;37.310;13.582;2022-07-29T09:31:46;37.20;65.30
61004;DHT22;46889;37.310;13.582;2022-07-29T09:34:14;37.10;65.70
61004;DHT22;46889;37.310;13.582;2022-07-29T09:36:50;36.90;65.20
61004;DHT22;46889;37.310;13.582;2022-07-29T09:39:26;36.80;66.00
61004;DHT22;46889;37.310;13.582;2022-07-29T09:41:53;36.20;66.70
61004;DHT22;46889;37.310;13.582;2022-07-29T09:44:19;36.10;67.20
61004;DHT22;46889;37.310;13.582;2022-07-29T09:46:59;36.30;66.90
61004;DHT22;46889;37.310;13.582;2022-07-29T09:49:31;36.50;66.80
61004;DHT22;46889;37.310;13.582;2022-07-29T09:52:08;36.50;67.40
61004;DHT22;46889;37.310;13.582;2022-07-29T09:54:35;36.60;68.00
61004;DHT22;46889;37.310;13.582;2022-07-29T09:57:06;36.60;67.60
61004;DHT22;46889;37.310;13.582;2022-07-29T09:59:32;36.50;67.80
61004;DHT22;46889;37.310;13.582;2022-07-29T10:01:58;36.50;68.40
61004;DHT22;46889;37.310;13.582;2022-07-29T10:04:35;36.60;68.70
61004;DHT22;46889;37.310;13.582;2022-07-29T10:07:02;36.40;67.40
61004;DHT22;46889;37.310;13.582;2022-07-29T10:09:30;36.20;67.90
61004;DHT22;46889;37.310;13.582;2022-07-29T10:12:06;36.10;68.00
61004;DHT22;46889;37.310;13.582;2022-07-29T10:14:32;36.10;68.30
61004;DHT22;46889;37.310;13.582;2022-07-29T10:17:02;35.90;69.20
61004;DHT22;46889;37.310;13.582;2022-07-29T10:19:28;35.80;68.20
61004;DHT22;46889;37.310;13.582;2022-07-29T10:21:56;35.80;68.90
61004;DHT22;46889;37.310;13.582;2022-07-29T10:24:23;35.40;68.70
61004;DHT22;46889;37.310;13.582;2022-07-29T10:26:49;35.30;70.00
61004;DHT22;46889;37.310;13.582;2022-07-29T10:29:15;35.20;70.70
61004;DHT22;46889;37.310;13.582;2022-07-29T10:31:47;35.30;70.80
61004;DHT22;46889;37.310;13.582;2022-07-29T10:34:16;35.40;70.70
61004;DHT22;46889;37.310;13.582;2022-07-29T10:39:27;35.30;72.10
61004;DHT22;46889;37.310;13.582;2022-07-29T10:42:05;35.50;72.40
61004;DHT22;46889;37.310;13.582;2022-07-29T10:44:35;35.30;72.30
61004;DHT22;46889;37.310;13.582;2022-07-29T10:47:05;35.40;73.90
61004;DHT22;46889;37.310;13.582;2022-07-29T10:49:31;35.50;73.70
61004;DHT22;46889;37.310;13.582;2022-07-29T10:57:16;34.80;75.80
61004;DHT22;46889;37.310;13.582;2022-07-29T10:59:43;34.60;76.80
61004;DHT22;46889;37.310;13.582;2022-07-29T11:07:20;34.60;78.90
61004;DHT22;46889;37.310;13.582;2022-07-29T11:10:19;34.60;80.00
61004;DHT22;46889;37.310;13.582;2022-07-29T11:15:10;34.90;79.60
61004;DHT22;46889;37.310;13.582;2022-07-29T11:22:59;34.40;83.40
61004;DHT22;46889;37.310;13.582;2022-07-29T11:25:25;34.40;82.00
61004;DHT22;46889;37.310;13.582;2022-07-29T11:27:52;34.30;82.10
61004;DHT22;46889;37.310;13.582;2022-07-29T11:30:18;34.40;83.40
61004;DHT22;46889;37.310;13.582;2022-07-29T11:32:44;34.40;84.10
61004;DHT22;46889;37.310;13.582;2022-07-29T11:35:11;34.50;83.40
61004;DHT22;46889;37.310;13.582;2022-07-29T11:37:37;34.40;83.70
61004;DHT22;46889;37.310;13.582;2022-07-29T11:42:48;34.40;82.60
61004;DHT22;46889;37.310;13.582;2022-07-29T11:45:17;34.60;81.60
61004;DHT22;46889;37.310;13.582;2022-07-29T11:52:54;34.40;85.20
61004;DHT22;46889;37.310;13.582;2022-07-29T11:55:21;34.40;87.00
61004;DHT22;46889;37.310;13.582;2022-07-29T11:57:48;34.30;86.40
61004;DHT22;46889;37.310;13.582;2022-07-29T12:02:50;34.30;84.60
61004;DHT22;46889;37.310;13.582;2022-07-29T12:05:16;34.30;87.20
61004;DHT22;46889;37.310;13.582;2022-07-29T12:07:42;34.60;88.40
61004;DHT22;46889;37.310;13.582;2022-07-29T12:10:08;34.70;87.60
61004;DHT22;46889;37.310;13.582;2022-07-29T12:12:34;34.70;87.80
61004;DHT22;46889;37.310;13.582;2022-07-29T12:17:38;34.70;85.80
61004;DHT22;46889;37.310;13.582;2022-07-29T12:20:04;34.70;85.20
61004;DHT22;46889;37.310;13.582;2022-07-29T12:22:31;34.80;82.50
61004;DHT22;46889;37.310;13.582;2022-07-29T12:25:01;34.70;83.30
61004;DHT22;46889;37.310;13.582;2022-07-29T12:27:28;34.70;83.70
61004;DHT22;46889;37.310;13.582;2022-07-29T12:30:01;34.80;81.10
61004;DHT22;46889;37.310;13.582;2022-07-29T12:32:38;34.80;78.60
61004;DHT22;46889;37.310;13.582;2022-07-29T12:35:05;34.80;79.70
61004;DHT22;46889;37.310;13.582;2022-07-29T12:37:37;34.90;81.80
61004;DHT22;46889;37.310;13.582;2022-07-29T12:40:03;34.90;82.50
61004;DHT22;46889;37.310;13.582;2022-07-29T12:42:29;34.80;83.70
61004;DHT22;46889;37.310;13.582;2022-07-29T12:44:55;35.00;83.60
61004;DHT22;46889;37.310;13.582;2022-07-29T12:47:21;35.00;84.70
61004;DHT22;46889;37.310;13.582;2022-07-29T12:49:47;35.10;84.60
61004;DHT22;46889;37.310;13.582;2022-07-29T12:52:26;35.00;84.30
61004;DHT22;46889;37.310;13.582;2022-07-29T12:54:52;34.90;83.70
61004;DHT22;46889;37.310;13.582;2022-07-29T12:57:18;35.00;83.90
61004;DHT22;46889;37.310;13.582;2022-07-29T12:59:43;35.10;84.30
61004;DHT22;46889;37.310;13.582;2022-07-29T13:02:21;35.10;84.20
61004;DHT22;46889;37.310;13.582;2022-07-29T13:04:57;34.90;85.40
61004;DHT22;46889;37.310;13.582;2022-07-29T13:07:24;34.80;86.00
61004;DHT22;46889;37.310;13.582;2022-07-29T13:09:52;34.70;85.70
61004;DHT22;46889;37.310;13.582;2022-07-29T13:12:18;34.10;88.20
61004;DHT22;46889;37.310;13.582;2022-07-29T13:14:46;34.00;87.90
61004;DHT22;46889;37.310;13.582;2022-07-29T13:17:19;34.20;88.60
61004;DHT22;46889;37.310;13.582;2022-07-29T13:19:49;34.30;89.10
61004;DHT22;46889;37.310;13.582;2022-07-29T13:22:19;34.40;89.80
61004;DHT22;46889;37.310;13.582;2022-07-29T13:24:54;34.50;89.90
61004;DHT22;46889;37.310;13.582;2022-07-29T13:27:22;34.40;89.20
61004;DHT22;46889;37.310;13.582;2022-07-29T13:29:48;34.30;89.10
61004;DHT22;46889;37.310;13.582;2022-07-29T13:32:16;34.00;90.20
61004;DHT22;46889;37.310;13.582;2022-07-29T13:34:42;34.30;90.50
61004;DHT22;46889;37.310;13.582;2022-07-29T13:37:08;34.30;90.70
61004;DHT22;46889;37.310;13.582;2022-07-29T13:39:34;34.30;90.90
61004;DHT22;46889;37.310;13.582;2022-07-29T13:41:59;34.50;90.80
61004;DHT22;46889;37.310;13.582;2022-07-29T13:44:25;34.30;91.00
61004;DHT22;46889;37.310;13.582;2022-07-29T13:46:51;34.20;91.10
61004;DHT22;46889;37.310;13.582;2022-07-29T13:49:17;34.10;91.30
61004;DHT22;46889;37.310;13.582;2022-07-29T13:51:43;34.10;91.70
61004;DHT22;46889;37.310;13.582;2022-07-29T13:54:08;34.30;91.90
61004;DHT22;46889;37.310;13.582;2022-07-29T13:56:34;34.50;92.20
61004;DHT22;46889;37.310;13.582;2022-07-29T13:59:00;34.50;92.30
61004;DHT22;46889;37.310;13.582;2022-07-29T14:01:26;34.40;92.30
61004;DHT22;46889;37.310;13.582;2022-07-29T14:03:52;34.10;93.30
61004;DHT22;46889;37.310;13.582;2022-07-29T14:06:18;34.10;93.80
61004;DHT22;46889;37.310;13.582;2022-07-29T14:08:44;34.30;92.80
61004;DHT22;46889;37.310;13.582;2022-07-29T14:11:10;34.30;93.90
61004;DHT22;46889;37.310;13.582;2022-07-29T14:13:36;34.40;93.50
61004;DHT22;46889;37.310;13.582;2022-07-29T14:16:02;34.50;93.80
61004;DHT22;46889;37.310;13.582;2022-07-29T14:18:27;34.50;93.60
61004;DHT22;46889;37.310;13.582;2022-07-29T14:20:53;34.50;93.10
61004;DHT22;46889;37.310;13.582;2022-07-29T14:23:19;34.60;93.00
61004;DHT22;46889;37.310;13.582;2022-07-29T14:25:45;34.50;93.90
61004;DHT22;46889;37.310;13.582;2022-07-29T14:28:11;34.50;93.70
61004;DHT22;46889;37.310;13.582;2022-07-29T14:30:37;34.60;93.70
61004;DHT22;46889;37.310;13.582;2022-07-29T14:33:03;34.70;92.50
61004;DHT22;46889;37.310;13.582;2022-07-29T14:35:28;34.70;92.70
61004;DHT22;46889;37.310;13.582;2022-07-29T14:37:55;34.70;92.60
61004;DHT22;46889;37.310;13.582;2022-07-29T14:40:21;34.80;91.70
61004;DHT22;46889;37.310;13.582;2022-07-29T14:42:46;34.70;88.00
61004;DHT22;46889;37.310;13.582;2022-07-29T14:45:12;34.70;90.20
61004;DHT22;46889;37.310;13.582;2022-07-29T14:47:38;34.90;90.40
61004;DHT22;46889;37.310;13.582;2022-07-29T14:50:05;34.60;86.00
61004;DHT22;46889;37.310;13.582;2022-07-29T14:52:30;34.50;88.00
61004;DHT22;46889;37.310;13.582;2022-07-29T14:54:57;34.70;87.70
61004;DHT22;46889;37.310;13.582;2022-07-29T14:57:23;34.90;85.20
61004;DHT22;46889;37.310;13.582;2022-07-29T14:59:49;34.90;86.20
61004;DHT22;46889;37.310;13.582;2022-07-29T15:02:15;35.00;87.20
61004;DHT22;46889;37.310;13.582;2022-07-29T15:04:41;35.00;90.80
61004;DHT22;46889;37.310;13.582;2022-07-29T15:07:07;34.80;92.40
61004;DHT22;46889;37.310;13.582;2022-07-29T15:09:33;34.80;92.40
61004;DHT22;46889;37.310;13.582;2022-07-29T15:11:59;34.60;93.40
61004;DHT22;46889;37.310;13.582;2022-07-29T15:14:25;34.60;93.20
61004;DHT22;46889;37.310;13.582;2022-07-29T15:16:51;34.70;93.20
61004;DHT22;46889;37.310;13.582;2022-07-29T15:19:16;34.50;93.50
61004;DHT22;46889;37.310;13.582;2022-07-29T15:21:42;34.10;94.00
61004;DHT22;46889;37.310;13.582;2022-07-29T15:24:08;34.00;94.60
61004;DHT22;46889;37.310;13.582;2022-07-29T15:26:34;34.10;94.80
61004;DHT22;46889;37.310;13.582;2022-07-29T15:29:00;34.20;94.60
61004;DHT22;46889;37.310;13.582;2022-07-29T15:31:25;34.10;94.90
61004;DHT22;46889;37.310;13.582;2022-07-29T15:33:51;34.10;95.70
61004;DHT22;46889;37.310;13.582;2022-07-29T15:36:17;33.90;95.60
61004;DHT22;46889;37.310;13.582;2022-07-29T15:38:43;33.60;95.90
61004;DHT22;46889;37.310;13.582;2022-07-29T15:41:13;33.50;96.10
61004;DHT22;46889;37.310;13.582;2022-07-29T15:43:43;33.40;96.90
61004;DHT22;46889;37.310;13.582;2022-07-29T15:46:11;33.40;97.30
61004;DHT22;46889;37.310;13.582;2022-07-29T15:48:56;33.40;97.50
61004;DHT22;46889;37.310;13.582;2022-07-29T15:51:21;33.20;96.80
61004;DHT22;46889;37.310;13.582;2022-07-29T15:53:47;33.20;96.60
61004;DHT22;46889;37.310;13.582;2022-07-29T15:56:13;33.30;96.50
61004;DHT22;46889;37.310;13.582;2022-07-29T15:58:39;33.40;95.70
61004;DHT22;46889;37.310;13.582;2022-07-29T16:01:05;33.30;95.60
61004;DHT22;46889;37.310;13.582;2022-07-29T16:03:31;33.20;95.10